sensor_id;sensor_type;location;lat;lon;timestamp;temperature;humidity
68051;DHT22;54839;51.364;7.246;2023-12-20T00:00:55;7.00;99.90
68051;DHT22;54839;51.364;7.246;2023-12-20T00:03:21;7.10;99.90
68051;DHT22;54839;51.364;7.246;2023-12-20T00:05:47;7.00;99.90
68051;DHT22;54839;51.364;7.246;2023-12-20T00:08:13;7.00;99.90
68051;DHT22;54839;51.364;7.246;2023-12-20T00:10:39;7.00;99.90
68051;DHT22;54839;51.364;7.246;2023-12-20T00:13:04;7.00;99.90
68051;DHT22;54839;51.364;7.246;2023-12-20T00:15:30;7.00;99.90
68051;DHT22;54839;51.364;7.246;2023-12-20T00:17:55;6.90;99.90
68051;DHT22;54839;51.364;7.246;2023-12-20T00:20:21;6.90;99.90
68051;DHT22;54839;51.364;7.246;2023-12-20T00:22:46;6.90;99.90
68051;DHT22;54839;51.364;7.246;2023-12-20T00:25:12;7.00;99.90
68051;DHT22;54839;51.364;7.246;2023-12-20T00:27:38;6.90;99.90
68051;DHT22;54839;51.364;7.246;2023-12-20T00:30:03;7.00;99.90
68051;DHT22;54839;51.364;7.246;2023-12-20T00:32:29;7.00;99.90
68051;DHT22;54839;51.364;7.246;2023-12-20T00:34:54;6.90;99.90
68051;DHT22;54839;51.364;7.246;2023-12-20T00:37:20;6.90;99.90
68051;DHT22;54839;51.364;7.246;2023-12-20T00:39:46;6.90;99.90
68051;DHT22;54839;51.364;7.246;2023-12-20T00:42:11;7.00;99.90
68051;DHT22;54839;51.364;7.246;2023-12-20T00:44:37;6.90;99.90
68051;DHT22;54839;51.364;7.246;2023-12-20T00:47:03;7.00;99.90
68051;DHT22;54839;51.364;7.246;2023-12-20T00:49:28;6.80;99.90
68051;DHT22;54839;51.364;7.246;2023-12-20T00:51:54;6.80;99.90
68051;DHT22;54839;51.364;7.246;2023-12-20T00:54:19;6.80;99.90
68051;DHT22;54839;51.364;7.246;2023-12-20T00:56:45;6.70;99.90
68051;DHT22;54839;51.364;7.246;2023-12-20T00:59:10;6.70;99.90
68051;DHT22;54839;51.364;7.246;2023-12-20T01:01:36;6.80;99.90
68051;DHT22;54839;51.364;7.246;2023-12-20T01:04:01;6.70;99.90
68051;DHT22;54839;51.364;7.246;2023-12-20T01:06:27;6.70;99.90
68051;DHT22;54839;51.364;7.246;2023-12-20T01:08:52;6.60;99.90
68051;DHT22;54839;51.364;7.246;2023-12-20T01:11:18;6.60;99.90
68051;DHT22;54839;51.364;7.246;2023-12-20T01:13:44;6.60;99.90
68051;DHT22;54839;51.364;7.246;2023-12-20T01:16:11;6.70;99.90
68051;DHT22;54839;51.364;7.246;2023-12-20T01:18:37;6.50;99.90
68051;DHT22;54839;51.364;7.246;2023-12-20T01:21:02;6.50;99.90
68051;DHT22;54839;51.364;7.246;2023-12-20T01:23:28;6.60;99.90
68051;DHT22;54839;51.364;7.246;2023-12-20T01:25:54;6.70;99.90
68051;DHT22;54839;51.364;7.246;2023-12-20T01:28:20;6.70;99.90
68051;DHT22;54839;51.364;7.246;2023-12-20T01:30:46;6.70;99.90
68051;DHT22;54839;51.364;7.246;2023-12-20T01:33:11;6.70;99.90
68051;DHT22;54839;51.364;7.246;2023-12-20T01:35:37;6.60;99.90
68051;DHT22;54839;51.364;7.246;2023-12-20T01:38:02;6.60;99.90
68051;DHT22;54839;51.364;7.246;2023-12-20T01:40:28;6.60;99.90
68051;DHT22;54839;51.364;7.246;2023-12-20T01:43:10;6.60;99.90
68051;DHT22;54839;51.364;7.246;2023-12-20T01:45:37;6.70;99.90
68051;DHT22;54839;51.364;7.246;2023-12-20T01:48:04;6.60;99.90
68051;DHT22;54839;51.364;7.246;2023-12-20T01:50:31;6.60;99.90
68051;DHT22;54839;51.364;7.246;2023-12-20T01:52:58;6.60;99.90
68051;DHT22;54839;51.364;7.246;2023-12-20T01:55:26;6.60;99.90
68051;DHT22;54839;51.364;7.246;2023-12-20T01:57:53;6.60;99.90
68051;DHT22;54839;51.364;7.246;2023-12-20T02:00:19;6.70;99.90
68051;DHT22;54839;51.364;7.246;2023-12-20T02:02:49;6.60;99.90
68051;DHT22;54839;51.364;7.246;2023-12-20T02:05:16;6.70;99.90
68051;DHT22;54839;51.364;7.246;2023-12-20T02:07:42;6.60;99.90
68051;DHT22;54839;51.364;7.246;2023-12-20T02:10:08;6.50;99.90
68051;DHT22;54839;51.364;7.246;2023-12-20T02:12:33;6.50;99.90
68051;DHT22;54839;51.364;7.246;2023-12-20T02:14:59;6.50;99.90
68051;DHT22;54839;51.364;7.246;2023-12-20T02:17:25;6.40;99.90
68051;DHT22;54839;51.364;7.246;2023-12-20T02:19:51;6.50;99.90
68051;DHT22;54839;51.364;7.246;2023-12-20T02:22:16;6.40;99.90
68051;DHT22;54839;51.364;7.246;2023-12-20T02:24:42;6.30;99.90
68051;DHT22;54839;51.364;7.246;2023-12-20T02:27:08;6.30;99.90
68051;DHT22;54839;51.364;7.246;2023-12-20T02:29:34;6.10;99.90
68051;DHT22;54839;51.364;7.246;2023-12-20T02:32:00;6.10;99.90
68051;DHT22;54839;51.364;7.246;2023-12-20T02:34:26;6.00;99.90
68051;DHT22;54839;51.364;7.246;2023-12-20T02:36:52;6.00;99.90
68051;DHT22;54839;51.364;7.246;2023-12-20T02:39:20;6.10;99.90
68051;DHT22;54839;51.364;7.246;2023-12-20T02:41:46;6.00;99.90
68051;DHT22;54839;51.364;7.246;2023-12-20T02:44:12;5.90;99.90
68051;DHT22;54839;51.364;7.246;2023-12-20T02:46:37;5.90;99.90
68051;DHT22;54839;51.364;7.246;2023-12-20T02:49:03;6.00;99.90
68051;DHT22;54839;51.364;7.246;2023-12-20T02:51:28;6.00;99.90
68051;DHT22;54839;51.364;7.246;2023-12-20T02:53:54;6.00;99.90
68051;DHT22;54839;51.364;7.246;2023-12-20T02:56:19;5.90;99.90
68051;DHT22;54839;51.364;7.246;2023-12-20T02:58:45;6.00;99.90
68051;DHT22;54839;51.364;7.246;2023-12-20T03:01:10;6.00;99.90
68051;DHT22;54839;51.364;7.246;2023-12-20T03:03:36;6.00;99.90
68051;DHT22;54839;51.364;7.246;2023-12-20T03:06:01;6.00;99.90
68051;DHT22;54839;51.364;7.246;2023-12-20T03:08:27;6.10;99.90
68051;DHT22;54839;51.364;7.246;2023-12-20T03:10:52;6.00;99.90
68051;DHT22;54839;51.364;7.246;2023-12-20T03:13:19;6.00;99.90
68051;DHT22;54839;51.364;7.246;2023-12-20T03:15:45;6.10;99.90
68051;DHT22;54839;51.364;7.246;2023-12-20T03:18:10;6.10;99.90
68051;DHT22;54839;51.364;7.246;2023-12-20T03:20:36;6.00;99.90
68051;DHT22;54839;51.364;7.246;2023-12-20T03:23:01;6.00;99.90
68051;DHT22;54839;51.364;7.246;2023-12-20T03:25:27;6.00;99.90
68051;DHT22;54839;51.364;7.246;2023-12-20T03:27:53;6.10;99.90
68051;DHT22;54839;51.364;7.246;2023-12-20T03:30:19;5.90;99.90
68051;DHT22;54839;51.364;7.246;2023-12-20T03:32:44;6.00;99.90
68051;DHT22;54839;51.364;7.246;2023-12-20T03:35:10;5.90;99.90
68051;DHT22;54839;51.364;7.246;2023-12-20T03:37:35;5.90;99.90
68051;DHT22;54839;51.364;7.246;2023-12-20T03:40:01;5.90;99.90
68051;DHT22;54839;51.364;7.246;2023-12-20T03:42:27;5.80;99.90
68051;DHT22;54839;51.364;7.246;2023-12-20T03:44:53;5.80;99.90
68051;DHT22;54839;51.364;7.246;2023-12-20T03:47:18;5.80;99.90
68051;DHT22;54839;51.364;7.246;2023-12-20T03:49:44;5.90;99.90
68051;DHT22;54839;51.364;7.246;2023-12-20T03:52:09;5.90;99.90
68051;DHT22;54839;51.364;7.246;2023-12-20T03:54:35;5.70;99.90
68051;DHT22;54839;51.364;7.246;2023-12-20T03:57:01;5.70;99.90
68051;DHT22;54839;51.364;7.246;2023-12-20T03:59:26;5.70;99.90
68051;DHT22;54839;51.364;7.246;2023-12-20T04:01:52;5.60;99.90
68051;DHT22;54839;51.364;7.246;2023-12-20T04:04:17;5.50;99.90
68051;DHT22;54839;51.364;7.246;2023-12-20T04:06:43;5.60;99.90
68051;DHT22;54839;51.364;7.246;2023-12-20T04:09:09;5.60;99.90
68051;DHT22;54839;51.364;7.246;2023-12-20T04:11:34;5.60;99.90
68051;DHT22;54839;51.364;7.246;2023-12-20T04:14:00;5.80;99.90
68051;DHT22;54839;51.364;7.246;2023-12-20T04:16:26;5.80;99.90
68051;DHT22;54839;51.364;7.246;2023-12-20T04:18:51;5.60;99.90
68051;DHT22;54839;51.364;7.246;2023-12-20T04:21:17;5.70;99.90
68051;DHT22;54839;51.364;7.246;2023-12-20T04:23:43;5.60;99.90
68051;DHT22;54839;51.364;7.246;2023-12-20T04:26:09;5.60;99.90
68051;DHT22;54839;51.364;7.246;2023-12-20T04:28:35;5.70;99.90
68051;DHT22;54839;51.364;7.246;2023-12-20T04:31:00;5.50;99.90
68051;DHT22;54839;51.364;7.246;2023-12-20T04:33:26;5.50;99.90
68051;DHT22;54839;51.364;7.246;2023-12-20T04:35:51;5.50;99.90
68051;DHT22;54839;51.364;7.246;2023-12-20T04:38:17;5.50;99.90
68051;DHT22;54839;51.364;7.246;2023-12-20T04:40:42;5.60;99.90
68051;DHT22;54839;51.364;7.246;2023-12-20T04:43:08;5.60;99.90
68051;DHT22;54839;51.364;7.246;2023-12-20T04:45:34;5.50;99.90
68051;DHT22;54839;51.364;7.246;2023-12-20T04:48:00;5.50;99.90
68051;DHT22;54839;51.364;7.246;2023-12-20T04:50:26;5.60;99.90
68051;DHT22;54839;51.364;7.246;2023-12-20T04:52:51;5.50;99.90
68051;DHT22;54839;51.364;7.246;2023-12-20T04:55:17;5.50;99.90
68051;DHT22;54839;51.364;7.246;2023-12-20T04:57:43;5.70;99.90
68051;DHT22;54839;51.364;7.246;2023-12-20T05:00:09;5.50;99.90
68051;DHT22;54839;51.364;7.246;2023-12-20T05:02:38;5.60;99.90
68051;DHT22;54839;51.364;7.246;2023-12-20T05:05:03;5.60;99.90
68051;DHT22;54839;51.364;7.246;2023-12-20T05:07:29;5.70;99.90
68051;DHT22;54839;51.364;7.246;2023-12-20T05:09:55;5.60;99.90
68051;DHT22;54839;51.364;7.246;2023-12-20T05:12:20;5.50;99.90
68051;DHT22;54839;51.364;7.246;2023-12-20T05:14:46;5.60;99.90
68051;DHT22;54839;51.364;7.246;2023-12-20T05:17:12;5.60;99.90
68051;DHT22;54839;51.364;7.246;2023-12-20T05:19:37;5.60;99.90
68051;DHT22;54839;51.364;7.246;2023-12-20T05:22:03;5.60;99.90
68051;DHT22;54839;51.364;7.246;2023-12-20T05:24:28;5.70;99.90
68051;DHT22;54839;51.364;7.246;2023-12-20T05:26:54;5.60;99.90
68051;DHT22;54839;51.364;7.246;2023-12-20T05:29:20;5.60;99.90
68051;DHT22;54839;51.364;7.246;2023-12-20T05:31:46;5.60;99.90
68051;DHT22;54839;51.364;7.246;2023-12-20T05:34:11;5.50;99.90
68051;DHT22;54839;51.364;7.246;2023-12-20T05:36:37;5.50;99.90
68051;DHT22;54839;51.364;7.246;2023-12-20T05:39:02;5.50;99.90
68051;DHT22;54839;51.364;7.246;2023-12-20T05:41:31;5.50;99.90
68051;DHT22;54839;51.364;7.246;2023-12-20T05:43:56;5.50;99.90
68051;DHT22;54839;51.364;7.246;2023-12-20T05:46:23;5.40;99.90
68051;DHT22;54839;51.364;7.246;2023-12-20T05:48:49;5.40;99.90
68051;DHT22;54839;51.364;7.246;2023-12-20T05:51:15;5.30;99.90
68051;DHT22;54839;51.364;7.246;2023-12-20T05:53:41;5.40;99.90
68051;DHT22;54839;51.364;7.246;2023-12-20T05:56:06;5.40;99.90
68051;DHT22;54839;51.364;7.246;2023-12-20T05:58:32;5.50;99.90
68051;DHT22;54839;51.364;7.246;2023-12-20T06:00:58;5.40;99.90
68051;DHT22;54839;51.364;7.246;2023-12-20T06:03:24;5.40;99.90
68051;DHT22;54839;51.364;7.246;2023-12-20T06:05:49;5.40;99.90
68051;DHT22;54839;51.364;7.246;2023-12-20T06:08:15;5.50;99.90
68051;DHT22;54839;51.364;7.246;2023-12-20T06:10:40;5.40;99.90
68051;DHT22;54839;51.364;7.246;2023-12-20T06:13:06;5.50;99.90
68051;DHT22;54839;51.364;7.246;2023-12-20T06:15:32;5.50;99.90
68051;DHT22;54839;51.364;7.246;2023-12-20T06:17:58;5.50;99.90
68051;DHT22;54839;51.364;7.246;2023-12-20T06:20:23;5.50;99.90
68051;DHT22;54839;51.364;7.246;2023-12-20T06:22:49;5.50;99.90
68051;DHT22;54839;51.364;7.246;2023-12-20T06:25:15;5.70;99.90
68051;DHT22;54839;51.364;7.246;2023-12-20T06:27:40;5.60;99.90
68051;DHT22;54839;51.364;7.246;2023-12-20T06:30:07;5.70;99.90
68051;DHT22;54839;51.364;7.246;2023-12-20T06:32:34;5.60;99.90
68051;DHT22;54839;51.364;7.246;2023-12-20T06:35:00;5.60;99.90
68051;DHT22;54839;51.364;7.246;2023-12-20T06:37:25;5.60;99.90
68051;DHT22;54839;51.364;7.246;2023-12-20T06:39:51;5.60;99.90
68051;DHT22;54839;51.364;7.246;2023-12-20T06:42:17;5.60;99.90
68051;DHT22;54839;51.364;7.246;2023-12-20T06:44:42;5.60;99.90
68051;DHT22;54839;51.364;7.246;2023-12-20T06:47:09;5.70;99.90
68051;DHT22;54839;51.364;7.246;2023-12-20T06:49:34;5.60;99.90
68051;DHT22;54839;51.364;7.246;2023-12-20T06:52:00;5.70;99.90
68051;DHT22;54839;51.364;7.246;2023-12-20T06:54:25;5.60;99.90
68051;DHT22;54839;51.364;7.246;2023-12-20T06:56:51;5.70;99.90
68051;DHT22;54839;51.364;7.246;2023-12-20T06:59:16;5.70;99.90
68051;DHT22;54839;51.364;7.246;2023-12-20T07:01:42;5.70;99.90
68051;DHT22;54839;51.364;7.246;2023-12-20T07:04:08;5.70;99.90
68051;DHT22;54839;51.364;7.246;2023-12-20T07:06:34;5.70;99.90
68051;DHT22;54839;51.364;7.246;2023-12-20T07:09:00;5.70;99.90
68051;DHT22;54839;51.364;7.246;2023-12-20T07:11:25;5.60;99.90
68051;DHT22;54839;51.364;7.246;2023-12-20T07:13:51;5.60;99.90
68051;DHT22;54839;51.364;7.246;2023-12-20T07:16:17;5.60;99.90
68051;DHT22;54839;51.364;7.246;2023-12-20T07:18:42;5.70;99.90
68051;DHT22;54839;51.364;7.246;2023-12-20T07:21:08;5.70;99.90
68051;DHT22;54839;51.364;7.246;2023-12-20T07:23:34;5.80;99.90
68051;DHT22;54839;51.364;7.246;2023-12-20T07:25:59;5.80;99.90
68051;DHT22;54839;51.364;7.246;2023-12-20T07:28:25;5.80;99.90
68051;DHT22;54839;51.364;7.246;2023-12-20T07:30:50;5.70;99.90
68051;DHT22;54839;51.364;7.246;2023-12-20T07:33:16;5.80;99.90
68051;DHT22;54839;51.364;7.246;2023-12-20T07:35:41;5.70;99.90
68051;DHT22;54839;51.364;7.246;2023-12-20T07:38:07;5.70;99.90
68051;DHT22;54839;51.364;7.246;2023-12-20T07:40:33;5.70;99.90
68051;DHT22;54839;51.364;7.246;2023-12-20T07:42:58;5.80;99.90
68051;DHT22;54839;51.364;7.246;2023-12-20T07:45:24;5.80;99.90
68051;DHT22;54839;51.364;7.246;2023-12-20T07:47:49;5.80;99.90
68051;DHT22;54839;51.364;7.246;2023-12-20T07:50:16;5.70;99.90
68051;DHT22;54839;51.364;7.246;2023-12-20T07:52:41;5.70;99.90
68051;DHT22;54839;51.364;7.246;2023-12-20T07:55:07;5.80;99.90
68051;DHT22;54839;51.364;7.246;2023-12-20T07:57:33;5.70;99.90
68051;DHT22;54839;51.364;7.246;2023-12-20T07:59:58;5.90;99.90
68051;DHT22;54839;51.364;7.246;2023-12-20T08:02:24;5.90;99.90
68051;DHT22;54839;51.364;7.246;2023-12-20T08:04:50;5.80;99.90
68051;DHT22;54839;51.364;7.246;2023-12-20T08:07:16;5.80;99.90
68051;DHT22;54839;51.364;7.246;2023-12-20T08:09:41;5.80;99.90
68051;DHT22;54839;51.364;7.246;2023-12-20T08:12:08;5.80;99.90
68051;DHT22;54839;51.364;7.246;2023-12-20T08:14:34;5.90;99.90
68051;DHT22;54839;51.364;7.246;2023-12-20T08:17:00;5.90;99.90
68051;DHT22;54839;51.364;7.246;2023-12-20T08:19:26;5.80;99.90
68051;DHT22;54839;51.364;7.246;2023-12-20T08:21:51;5.90;99.90
68051;DHT22;54839;51.364;7.246;2023-12-20T08:24:17;5.80;99.90
68051;DHT22;54839;51.364;7.246;2023-12-20T08:26:42;5.90;99.90
68051;DHT22;54839;51.364;7.246;2023-12-20T08:29:08;5.90;99.90
68051;DHT22;54839;51.364;7.246;2023-12-20T08:31:34;5.90;99.90
68051;DHT22;54839;51.364;7.246;2023-12-20T08:34:00;5.90;99.90
68051;DHT22;54839;51.364;7.246;2023-12-20T08:36:25;6.00;99.90
68051;DHT22;54839;51.364;7.246;2023-12-20T08:38:51;6.00;99.90
68051;DHT22;54839;51.364;7.246;2023-12-20T08:41:18;6.00;99.90
68051;DHT22;54839;51.364;7.246;2023-12-20T08:43:43;6.00;99.90
68051;DHT22;54839;51.364;7.246;2023-12-20T08:46:09;6.10;99.90
68051;DHT22;54839;51.364;7.246;2023-12-20T08:48:35;6.00;99.90
68051;DHT22;54839;51.364;7.246;2023-12-20T08:51:01;6.00;99.90
68051;DHT22;54839;51.364;7.246;2023-12-20T08:53:27;6.00;99.90
68051;DHT22;54839;51.364;7.246;2023-12-20T08:55:53;6.00;99.90
68051;DHT22;54839;51.364;7.246;2023-12-20T08:58:19;6.10;99.90
68051;DHT22;54839;51.364;7.246;2023-12-20T09:00:45;6.00;99.90
68051;DHT22;54839;51.364;7.246;2023-12-20T09:03:11;6.10;99.90
68051;DHT22;54839;51.364;7.246;2023-12-20T09:05:36;6.00;99.90
68051;DHT22;54839;51.364;7.246;2023-12-20T09:08:02;6.00;99.90
68051;DHT22;54839;51.364;7.246;2023-12-20T09:10:28;6.00;99.90
68051;DHT22;54839;51.364;7.246;2023-12-20T09:12:54;6.00;99.90
68051;DHT22;54839;51.364;7.246;2023-12-20T09:15:23;6.00;99.90
68051;DHT22;54839;51.364;7.246;2023-12-20T09:17:49;6.10;99.90
68051;DHT22;54839;51.364;7.246;2023-12-20T09:20:15;6.10;99.90
68051;DHT22;54839;51.364;7.246;2023-12-20T09:22:41;6.10;99.90
68051;DHT22;54839;51.364;7.246;2023-12-20T09:25:07;6.10;99.90
68051;DHT22;54839;51.364;7.246;2023-12-20T09:27:33;6.00;99.90
68051;DHT22;54839;51.364;7.246;2023-12-20T09:29:59;6.00;99.90
68051;DHT22;54839;51.364;7.246;2023-12-20T09:32:25;6.10;99.90
68051;DHT22;54839;51.364;7.246;2023-12-20T09:34:51;6.20;99.90
68051;DHT22;54839;51.364;7.246;2023-12-20T09:37:16;6.10;99.90
68051;DHT22;54839;51.364;7.246;2023-12-20T09:39:42;6.20;99.90
68051;DHT22;54839;51.364;7.246;2023-12-20T09:42:11;6.20;99.90
68051;DHT22;54839;51.364;7.246;2023-12-20T09:44:41;6.20;99.90
68051;DHT22;54839;51.364;7.246;2023-12-20T09:47:09;6.20;99.90
68051;DHT22;54839;51.364;7.246;2023-12-20T09:49:36;6.20;99.90
68051;DHT22;54839;51.364;7.246;2023-12-20T09:52:05;6.10;99.90
68051;DHT22;54839;51.364;7.246;2023-12-20T09:54:33;6.20;99.90
68051;DHT22;54839;51.364;7.246;2023-12-20T09:56:58;6.20;99.90
68051;DHT22;54839;51.364;7.246;2023-12-20T09:59:24;6.20;99.90
68051;DHT22;54839;51.364;7.246;2023-12-20T10:01:50;6.20;99.90
68051;DHT22;54839;51.364;7.246;2023-12-20T10:04:17;6.20;99.90
68051;DHT22;54839;51.364;7.246;2023-12-20T10:06:43;6.20;99.90
68051;DHT22;54839;51.364;7.246;2023-12-20T10:09:10;6.20;99.90
68051;DHT22;54839;51.364;7.246;2023-12-20T10:11:37;6.30;99.90
68051;DHT22;54839;51.364;7.246;2023-12-20T10:14:03;6.20;99.90
68051;DHT22;54839;51.364;7.246;2023-12-20T10:16:29;6.20;99.90
68051;DHT22;54839;51.364;7.246;2023-12-20T10:18:55;6.30;99.90
68051;DHT22;54839;51.364;7.246;2023-12-20T10:21:22;6.20;99.90
68051;DHT22;54839;51.364;7.246;2023-12-20T10:23:48;6.20;99.90
68051;DHT22;54839;51.364;7.246;2023-12-20T10:26:25;6.30;99.90
68051;DHT22;54839;51.364;7.246;2023-12-20T10:28:56;6.30;99.90
68051;DHT22;54839;51.364;7.246;2023-12-20T10:31:34;6.30;99.90
68051;DHT22;54839;51.364;7.246;2023-12-20T10:34:01;6.30;99.90
68051;DHT22;54839;51.364;7.246;2023-12-20T10:36:29;6.20;99.90
68051;DHT22;54839;51.364;7.246;2023-12-20T10:38:55;6.10;99.90
68051;DHT22;54839;51.364;7.246;2023-12-20T10:41:31;6.00;99.90
68051;DHT22;54839;51.364;7.246;2023-12-20T10:44:04;6.00;99.90
68051;DHT22;54839;51.364;7.246;2023-12-20T10:46:33;6.00;99.90
68051;DHT22;54839;51.364;7.246;2023-12-20T10:49:02;6.00;99.90
68051;DHT22;54839;51.364;7.246;2023-12-20T10:51:27;6.10;99.90
68051;DHT22;54839;51.364;7.246;2023-12-20T10:53:55;6.20;99.90
68051;DHT22;54839;51.364;7.246;2023-12-20T10:59:33;6.40;99.90
68051;DHT22;54839;51.364;7.246;2023-12-20T11:01:59;6.20;99.90
68051;DHT22;54839;51.364;7.246;2023-12-20T11:04:50;6.30;99.90
68051;DHT22;54839;51.364;7.246;2023-12-20T11:07:23;6.20;99.90
68051;DHT22;54839;51.364;7.246;2023-12-20T11:10:09;6.20;99.90
68051;DHT22;54839;51.364;7.246;2023-12-20T11:12:48;6.20;99.90
68051;DHT22;54839;51.364;7.246;2023-12-20T11:15:16;6.10;99.90
68051;DHT22;54839;51.364;7.246;2023-12-20T11:17:45;6.10;99.90
68051;DHT22;54839;51.364;7.246;2023-12-20T11:20:12;6.10;99.90
68051;DHT22;54839;51.364;7.246;2023-12-20T11:22:38;6.20;99.90
68051;DHT22;54839;51.364;7.246;2023-12-20T11:25:11;6.10;99.90
68051;DHT22;54839;51.364;7.246;2023-12-20T11:27:40;6.20;99.90
68051;DHT22;54839;51.364;7.246;2023-12-20T11:30:06;6.20;99.90
68051;DHT22;54839;51.364;7.246;2023-12-20T11:32:35;6.20;99.90
68051;DHT22;54839;51.364;7.246;2023-12-20T11:35:19;6.20;99.90
68051;DHT22;54839;51.364;7.246;2023-12-20T11:37:45;6.00;99.90
68051;DHT22;54839;51.364;7.246;2023-12-20T11:40:17;6.00;99.90
68051;DHT22;54839;51.364;7.246;2023-12-20T11:42:44;5.90;99.90
68051;DHT22;54839;51.364;7.246;2023-12-20T11:45:13;6.00;99.90
68051;DHT22;54839;51.364;7.246;2023-12-20T11:47:45;5.90;99.90
68051;DHT22;54839;51.364;7.246;2023-12-20T11:50:11;6.00;99.90
68051;DHT22;54839;51.364;7.246;2023-12-20T11:52:36;6.00;99.90
68051;DHT22;54839;51.364;7.246;2023-12-20T11:55:02;6.00;99.90
68051;DHT22;54839;51.364;7.246;2023-12-20T11:57:29;6.10;99.90
68051;DHT22;54839;51.364;7.246;2023-12-20T11:59:55;6.20;99.90
68051;DHT22;54839;51.364;7.246;2023-12-20T12:02:21;6.10;99.90
68051;DHT22;54839;51.364;7.246;2023-12-20T12:04:48;6.20;99.90
68051;DHT22;54839;51.364;7.246;2023-12-20T12:07:14;6.10;99.90
68051;DHT22;54839;51.364;7.246;2023-12-20T12:09:39;6.20;99.90
68051;DHT22;54839;51.364;7.246;2023-12-20T12:12:06;6.20;99.90
68051;DHT22;54839;51.364;7.246;2023-12-20T12:14:32;6.10;99.90
68051;DHT22;54839;51.364;7.246;2023-12-20T12:16:57;6.00;99.90
68051;DHT22;54839;51.364;7.246;2023-12-20T12:19:24;6.10;99.90
68051;DHT22;54839;51.364;7.246;2023-12-20T12:21:51;6.20;99.90
68051;DHT22;54839;51.364;7.246;2023-12-20T12:24:20;6.10;99.90
68051;DHT22;54839;51.364;7.246;2023-12-20T12:26:56;6.00;99.90
68051;DHT22;54839;51.364;7.246;2023-12-20T12:29:22;6.00;99.90
68051;DHT22;54839;51.364;7.246;2023-12-20T12:31:50;6.00;99.90
68051;DHT22;54839;51.364;7.246;2023-12-20T12:34:15;6.20;99.90
68051;DHT22;54839;51.364;7.246;2023-12-20T12:36:41;6.20;99.90
68051;DHT22;54839;51.364;7.246;2023-12-20T12:39:07;6.10;99.90
68051;DHT22;54839;51.364;7.246;2023-12-20T12:41:33;6.20;99.90
68051;DHT22;54839;51.364;7.246;2023-12-20T12:43:58;6.20;99.90
68051;DHT22;54839;51.364;7.246;2023-12-20T12:46:24;6.20;99.90
68051;DHT22;54839;51.364;7.246;2023-12-20T12:48:49;6.40;99.90
68051;DHT22;54839;51.364;7.246;2023-12-20T12:51:15;6.30;99.90
68051;DHT22;54839;51.364;7.246;2023-12-20T12:53:41;6.40;99.90
68051;DHT22;54839;51.364;7.246;2023-12-20T12:56:07;6.40;99.90
68051;DHT22;54839;51.364;7.246;2023-12-20T12:58:33;6.50;99.90
68051;DHT22;54839;51.364;7.246;2023-12-20T13:00:59;6.50;99.90
68051;DHT22;54839;51.364;7.246;2023-12-20T13:03:24;6.50;99.90
68051;DHT22;54839;51.364;7.246;2023-12-20T13:05:50;6.50;99.90
68051;DHT22;54839;51.364;7.246;2023-12-20T13:08:16;6.50;99.90
68051;DHT22;54839;51.364;7.246;2023-12-20T13:10:41;6.60;99.90
68051;DHT22;54839;51.364;7.246;2023-12-20T13:13:07;6.50;99.90
68051;DHT22;54839;51.364;7.246;2023-12-20T13:15:33;6.50;99.90
68051;DHT22;54839;51.364;7.246;2023-12-20T13:17:58;6.50;99.90
68051;DHT22;54839;51.364;7.246;2023-12-20T13:20:25;6.50;99.90
68051;DHT22;54839;51.364;7.246;2023-12-20T13:22:50;6.40;99.90
68051;DHT22;54839;51.364;7.246;2023-12-20T13:25:16;6.50;99.90
68051;DHT22;54839;51.364;7.246;2023-12-20T13:27:41;6.40;99.90
68051;DHT22;54839;51.364;7.246;2023-12-20T13:30:07;6.40;99.90
68051;DHT22;54839;51.364;7.246;2023-12-20T13:32:33;6.40;99.90
68051;DHT22;54839;51.364;7.246;2023-12-20T13:34:58;6.40;99.90
68051;DHT22;54839;51.364;7.246;2023-12-20T13:37:24;6.30;99.90
68051;DHT22;54839;51.364;7.246;2023-12-20T13:39:49;6.30;99.90
68051;DHT22;54839;51.364;7.246;2023-12-20T13:42:15;6.30;99.90
68051;DHT22;54839;51.364;7.246;2023-12-20T13:44:41;6.20;99.90
68051;DHT22;54839;51.364;7.246;2023-12-20T13:47:06;6.10;99.90
68051;DHT22;54839;51.364;7.246;2023-12-20T13:49:32;6.10;99.90
68051;DHT22;54839;51.364;7.246;2023-12-20T13:51:57;6.00;99.90
68051;DHT22;54839;51.364;7.246;2023-12-20T13:54:24;5.90;99.90
68051;DHT22;54839;51.364;7.246;2023-12-20T13:56:49;6.00;99.90
68051;DHT22;54839;51.364;7.246;2023-12-20T13:59:15;5.90;99.90
68051;DHT22;54839;51.364;7.246;2023-12-20T14:01:41;6.00;99.90
68051;DHT22;54839;51.364;7.246;2023-12-20T14:04:07;6.00;99.90
68051;DHT22;54839;51.364;7.246;2023-12-20T14:06:33;5.90;99.90
68051;DHT22;54839;51.364;7.246;2023-12-20T14:08:58;5.90;99.90
68051;DHT22;54839;51.364;7.246;2023-12-20T14:11:27;5.90;99.90
68051;DHT22;54839;51.364;7.246;2023-12-20T14:13:53;5.90;99.90
68051;DHT22;54839;51.364;7.246;2023-12-20T14:16:22;5.90;99.90
68051;DHT22;54839;51.364;7.246;2023-12-20T14:18:49;6.00;99.90
68051;DHT22;54839;51.364;7.246;2023-12-20T14:21:14;5.90;99.90
68051;DHT22;54839;51.364;7.246;2023-12-20T14:23:40;6.00;99.90
68051;DHT22;54839;51.364;7.246;2023-12-20T14:26:05;6.10;99.90
68051;DHT22;54839;51.364;7.246;2023-12-20T14:28:31;6.00;99.90
68051;DHT22;54839;51.364;7.246;2023-12-20T14:30:56;6.00;99.90
68051;DHT22;54839;51.364;7.246;2023-12-20T14:33:22;6.00;99.90
68051;DHT22;54839;51.364;7.246;2023-12-20T14:35:47;6.00;99.90
68051;DHT22;54839;51.364;7.246;2023-12-20T14:38:13;6.10;99.90
68051;DHT22;54839;51.364;7.246;2023-12-20T14:40:40;6.10;99.90
68051;DHT22;54839;51.364;7.246;2023-12-20T14:43:06;6.00;99.90
68051;DHT22;54839;51.364;7.246;2023-12-20T14:45:31;6.00;99.90
68051;DHT22;54839;51.364;7.246;2023-12-20T14:47:57;6.00;99.90
68051;DHT22;54839;51.364;7.246;2023-12-20T14:50:24;6.00;99.90
68051;DHT22;54839;51.364;7.246;2023-12-20T14:52:49;6.10;99.90
68051;DHT22;54839;51.364;7.246;2023-12-20T14:55:15;6.10;99.90
68051;DHT22;54839;51.364;7.246;2023-12-20T14:57:41;6.10;99.90
68051;DHT22;54839;51.364;7.246;2023-12-20T15:00:07;6.10;99.90
68051;DHT22;54839;51.364;7.246;2023-12-20T15:02:33;6.20;99.90
68051;DHT22;54839;51.364;7.246;2023-12-20T15:04:58;6.20;99.90
68051;DHT22;54839;51.364;7.246;2023-12-20T15:07:24;6.20;99.90
68051;DHT22;54839;51.364;7.246;2023-12-20T15:09:49;6.20;99.90
68051;DHT22;54839;51.364;7.246;2023-12-20T15:12:15;6.30;99.90
68051;DHT22;54839;51.364;7.246;2023-12-20T15:14:40;6.20;99.90
68051;DHT22;54839;51.364;7.246;2023-12-20T15:17:06;6.30;99.90
68051;DHT22;54839;51.364;7.246;2023-12-20T15:19:32;6.20;99.90
68051;DHT22;54839;51.364;7.246;2023-12-20T15:21:57;6.30;99.90
68051;DHT22;54839;51.364;7.246;2023-12-20T15:24:24;6.30;99.90
68051;DHT22;54839;51.364;7.246;2023-12-20T15:26:54;6.20;99.90
68051;DHT22;54839;51.364;7.246;2023-12-20T15:29:19;6.30;99.90
68051;DHT22;54839;51.364;7.246;2023-12-20T15:31:48;6.40;99.90
68051;DHT22;54839;51.364;7.246;2023-12-20T15:34:14;6.40;99.90
68051;DHT22;54839;51.364;7.246;2023-12-20T15:36:41;6.40;99.90
68051;DHT22;54839;51.364;7.246;2023-12-20T15:39:07;6.40;99.90
68051;DHT22;54839;51.364;7.246;2023-12-20T15:41:35;6.40;99.90